Terminal Aerodrome Forecast
Issued by NWS

Home | Current Version | Previous Version | Text Only | Print | Product List | Glossary On
Versions: 1 2 3 4 5 6 7 8 9 10 11 12 13 14
000
FTUS43 KIND 212300
TAFHUF
TAF
KHUF 212321Z 2200/2224 10005KT P6SM SKC
     FM221000 12006KT P6SM BKN080
     FM221500 13010KT P6SM -RA BKN020
     FM221800 13011KT 5SM RA OVC020=

USA.gov is the U.S. government's official web portal to all federal, state and local government web resources and services.